Time;durP1;ratioP1;P1;durP2;ratioP2;P2;SDS_P1;SDS_P2;PMS_P1;PMS_P2;Temp;Humidity;BMP_temperature;BMP_pressure;BME280_temperature;BME280_humidity;BME280_pressure;Samples;Min_cycle;Max_cycle;Signal;HPM_P1;HPM_P2
2023/12/30 00:01:33;;;;;;;32.08;30.80;;;;;;;;;;5111145;28;20452;-64
2023/12/30 00:03:59;;;;;;;24.20;23.00;;;;;;;;;;5101167;28;20455;-64
2023/12/30 00:06:27;;;;;;;44.92;43.00;;;;;;;;;;5102419;28;20051;-65
2023/12/30 00:08:53;;;;;;;44.80;43.03;;;;;;;;;;5105256;28;20501;-64
2023/12/30 00:11:20;;;;;;;39.35;37.75;;;;;;;;;;5102515;28;20744;-65
2023/12/30 00:13:46;;;;;;;41.20;39.38;;;;;;;;;;5103636;28;20097;-64
2023/12/30 00:16:13;;;;;;;37.17;35.75;;;;;;;;;;5103625;28;20047;-65
2023/12/30 00:18:40;;;;;;;42.20;40.53;;;;;;;;;;5102936;28;20046;-66
2023/12/30 00:21:07;;;;;;;27.48;26.25;;;;;;;;;;5104467;28;20447;-65
2023/12/30 00:23:35;;;;;;;39.28;37.78;;;;;;;;;;5112334;28;20108;-65
2023/12/30 00:26:01;;;;;;;37.63;36.10;;;;;;;;;;5099675;28;20044;-65
2023/12/30 00:28:28;;;;;;;42.03;40.03;;;;;;;;;;5101727;28;20092;-65
2023/12/30 00:30:54;;;;;;;42.60;40.60;;;;;;;;;;5107204;28;20047;-64
2023/12/30 00:33:21;;;;;;;40.30;38.25;;;;;;;;;;5112421;28;20051;-65
2023/12/30 00:35:47;;;;;;;45.15;43.10;;;;;;;;;;5106012;28;20048;-64
2023/12/30 00:38:14;;;;;;;43.00;41.10;;;;;;;;;;5092043;28;20051;-63
2023/12/30 00:40:41;;;;;;;40.20;37.80;;;;;;;;;;5092127;28;20109;-65
2023/12/30 00:43:08;;;;;;;56.70;54.05;;;;;;;;;;5091993;28;20452;-63
2023/12/30 00:45:34;;;;;;;46.88;44.50;;;;;;;;;;5095246;28;20055;-65
2023/12/30 00:48:00;;;;;;;43.92;41.92;;;;;;;;;;5092108;28;20121;-65
2023/12/30 00:50:26;;;;;;;43.17;41.08;;;;;;;;;;5091852;28;20048;-64
2023/12/30 00:52:53;;;;;;;42.13;40.30;;;;;;;;;;5091990;28;20494;-64
2023/12/30 00:55:19;;;;;;;45.63;43.92;;;;;;;;;;5091883;28;20044;-63
2023/12/30 00:57:47;;;;;;;44.97;43.20;;;;;;;;;;5091743;28;20109;-65
2023/12/30 01:00:14;;;;;;;40.78;38.72;;;;;;;;;;5091943;28;20093;-64
2023/12/30 01:02:40;;;;;;;27.65;25.88;;;;;;;;;;5097095;28;20444;-64
2023/12/30 01:05:07;;;;;;;50.95;48.90;;;;;;;;;;5105843;28;20036;-65
2023/12/30 01:07:34;;;;;;;46.15;43.88;;;;;;;;;;5111832;28;20093;-64
2023/12/30 01:10:01;;;;;;;44.58;42.83;;;;;;;;;;5098323;28;20048;-66
2023/12/30 01:12:27;;;;;;;48.13;46.13;;;;;;;;;;5092307;28;20048;-65
2023/12/30 01:14:55;;;;;;;40.53;38.75;;;;;;;;;;5091982;28;20052;-64
2023/12/30 01:17:22;;;;;;;27.45;26.25;;;;;;;;;;5091736;28;20456;-65
2023/12/30 01:19:47;;;;;;;45.20;42.78;;;;;;;;;;5091539;28;20052;-65
2023/12/30 01:22:14;;;;;;;52.30;49.88;;;;;;;;;;5091763;28;20055;-65
2023/12/30 01:24:40;;;;;;;34.15;31.85;;;;;;;;;;5093181;28;20478;-65
2023/12/30 01:27:07;;;;;;;60.92;58.55;;;;;;;;;;5110892;28;20090;-65
2023/12/30 01:29:33;;;;;;;49.63;47.70;;;;;;;;;;5111987;28;20047;-65
2023/12/30 01:32:01;;;;;;;46.80;45.13;;;;;;;;;;5110355;28;20096;-64
2023/12/30 01:34:28;;;;;;;46.90;45.15;;;;;;;;;;5111727;28;20093;-65
2023/12/30 01:36:54;;;;;;;43.97;41.97;;;;;;;;;;5112046;28;20060;-66
2023/12/30 01:39:21;;;;;;;40.70;39.25;;;;;;;;;;5115187;28;20044;-65
2023/12/30 01:41:49;;;;;;;46.35;44.55;;;;;;;;;;5114132;28;20047;-65
2023/12/30 01:44:15;;;;;;;49.97;48.00;;;;;;;;;;5102255;28;20053;-65
2023/12/30 01:46:42;;;;;;;50.17;47.78;;;;;;;;;;5108624;28;20059;-65
2023/12/30 01:49:10;;;;;;;47.33;45.50;;;;;;;;;;5115405;28;20079;-65
2023/12/30 01:51:37;;;;;;;45.15;43.33;;;;;;;;;;5115472;28;20048;-64
2023/12/30 01:54:04;;;;;;;48.25;46.22;;;;;;;;;;5115450;28;20096;-65
2023/12/30 01:56:32;;;;;;;43.45;41.47;;;;;;;;;;5114978;28;20055;-65
2023/12/30 01:58:59;;;;;;;44.08;42.33;;;;;;;;;;5115009;28;20052;-64
2023/12/30 02:01:27;;;;;;;46.63;44.50;;;;;;;;;;5105411;28;20044;-65
2023/12/30 02:03:53;;;;;;;48.92;46.92;;;;;;;;;;5100351;28;20083;-65
2023/12/30 02:06:21;;;;;;;58.67;56.53;;;;;;;;;;5099338;28;20047;-65
2023/12/30 02:08:48;;;;;;;37.72;36.13;;;;;;;;;;5108928;28;20047;-64
2023/12/30 02:11:15;;;;;;;52.50;50.45;;;;;;;;;;5114792;28;20052;-64
2023/12/30 02:13:42;;;;;;;47.17;45.28;;;;;;;;;;5101778;28;20120;-65
2023/12/30 02:16:08;;;;;;;49.33;47.53;;;;;;;;;;5114896;28;20096;-65
2023/12/30 02:18:35;;;;;;;52.13;50.20;;;;;;;;;;5106742;28;20105;-63
2023/12/30 02:21:01;;;;;;;47.90;45.38;;;;;;;;;;5094711;28;20048;-64
2023/12/30 02:23:29;;;;;;;52.72;50.42;;;;;;;;;;5094371;28;20052;-64
2023/12/30 02:25:55;;;;;;;55.53;52.47;;;;;;;;;;5094534;28;20044;-64
2023/12/30 02:28:22;;;;;;;50.38;48.42;;;;;;;;;;5090627;28;20040;-64
2023/12/30 02:30:48;;;;;;;49.92;47.92;;;;;;;;;;5085903;28;20048;-64
2023/12/30 02:33:15;;;;;;;51.42;48.63;;;;;;;;;;5112882;28;20051;-64
2023/12/30 02:35:42;;;;;;;55.13;52.85;;;;;;;;;;5094347;28;20482;-65
2023/12/30 02:38:08;;;;;;;29.20;27.70;;;;;;;;;;5094181;28;20524;-64
2023/12/30 02:40:36;;;;;;;47.42;45.58;;;;;;;;;;5094086;28;20048;-64
2023/12/30 02:43:03;;;;;;;51.10;49.00;;;;;;;;;;5094144;28;20109;-64
2023/12/30 02:45:29;;;;;;;61.17;57.47;;;;;;;;;;5094092;28;20052;-64
2023/12/30 02:47:56;;;;;;;46.20;44.38;;;;;;;;;;5089694;28;20488;-64
2023/12/30 02:50:22;;;;;;;49.85;47.88;;;;;;;;;;5097221;28;20120;-63
2023/12/30 02:52:48;;;;;;;50.95;48.67;;;;;;;;;;5073890;28;20098;-64
2023/12/30 02:55:18;;;;;;;45.05;42.97;;;;;;;;;;5073764;28;20098;-65
2023/12/30 02:57:45;;;;;;;55.05;52.83;;;;;;;;;;5073936;28;20137;-63
2023/12/30 03:00:12;;;;;;;52.75;50.45;;;;;;;;;;5075484;28;20632;-64
2023/12/30 03:02:39;;;;;;;53.28;50.72;;;;;;;;;;5113576;28;20051;-64
2023/12/30 03:05:06;;;;;;;53.15;50.88;;;;;;;;;;5113632;28;20049;-64
2023/12/30 03:07:36;;;;;;;45.53;43.42;;;;;;;;;;5109940;28;20043;-64
2023/12/30 03:10:03;;;;;;;47.67;45.80;;;;;;;;;;5088902;28;20144;-64
2023/12/30 03:12:29;;;;;;;34.22;32.42;;;;;;;;;;5086737;28;20485;-65
2023/12/30 03:14:57;;;;;;;50.08;47.92;;;;;;;;;;5073451;28;20048;-64
2023/12/30 03:17:23;;;;;;;48.15;46.35;;;;;;;;;;5073174;28;20094;-64
2023/12/30 03:19:50;;;;;;;47.90;45.72;;;;;;;;;;5080441;28;20188;-65
2023/12/30 03:22:16;;;;;;;53.05;50.80;;;;;;;;;;5087310;28;20040;-66
2023/12/30 03:24:43;;;;;;;46.80;44.33;;;;;;;;;;5077814;28;20099;-64
2023/12/30 03:27:09;;;;;;;41.70;39.95;;;;;;;;;;5090883;28;20052;-65
2023/12/30 03:29:36;;;;;;;27.17;26.08;;;;;;;;;;5093193;28;20464;-64
2023/12/30 03:32:04;;;;;;;40.15;38.05;;;;;;;;;;5102892;28;20051;-64
2023/12/30 03:34:30;;;;;;;43.40;41.50;;;;;;;;;;5113418;28;20052;-64
2023/12/30 03:36:57;;;;;;;48.90;46.75;;;;;;;;;;5113601;28;20102;-64
2023/12/30 03:39:23;;;;;;;53.60;51.30;;;;;;;;;;5108307;28;20048;-64
2023/12/30 03:41:50;;;;;;;48.75;46.72;;;;;;;;;;5088151;28;20052;-65
2023/12/30 03:44:16;;;;;;;49.70;47.65;;;;;;;;;;5085131;28;20040;-64
2023/12/30 03:46:43;;;;;;;47.67;45.83;;;;;;;;;;5077337;28;20197;-64
2023/12/30 03:49:11;;;;;;;49.63;47.30;;;;;;;;;;5072521;28;20502;-64
2023/12/30 03:51:37;;;;;;;45.72;43.40;;;;;;;;;;5071875;28;20044;-64
2023/12/30 03:54:04;;;;;;;36.20;34.80;;;;;;;;;;5072273;28;20040;-63
2023/12/30 03:56:31;;;;;;;46.03;43.83;;;;;;;;;;5071759;28;20098;-63
2023/12/30 03:58:59;;;;;;;36.47;34.63;;;;;;;;;;5072167;28;20453;-64
2023/12/30 04:01:26;;;;;;;26.05;24.85;;;;;;;;;;5078620;28;20428;-64
2023/12/30 04:03:52;;;;;;;27.25;25.73;;;;;;;;;;5087448;28;20418;-64
2023/12/30 04:06:20;;;;;;;45.33;43.15;;;;;;;;;;5077501;28;20044;-64
2023/12/30 04:08:46;;;;;;;44.50;42.22;;;;;;;;;;5072260;28;20145;-64
2023/12/30 04:11:13;;;;;;;51.53;49.22;;;;;;;;;;5072117;28;20088;-64
2023/12/30 04:13:39;;;;;;;47.35;45.25;;;;;;;;;;5072253;28;20052;-65
2023/12/30 04:16:07;;;;;;;44.05;42.35;;;;;;;;;;5072166;28;20049;-64
2023/12/30 04:18:34;;;;;;;51.97;49.60;;;;;;;;;;5087008;28;20539;-64
2023/12/30 04:21:00;;;;;;;31.38;29.65;;;;;;;;;;5090915;28;20479;-64
2023/12/30 04:23:28;;;;;;;56.53;54.28;;;;;;;;;;5086458;28;20082;-64
2023/12/30 04:25:55;;;;;;;50.90;48.70;;;;;;;;;;5079672;28;20056;-65
2023/12/30 04:28:21;;;;;;;49.33;47.45;;;;;;;;;;5072074;28;20059;-64
2023/12/30 04:30:47;;;;;;;46.95;45.00;;;;;;;;;;5084401;28;20565;-64
2023/12/30 04:33:14;;;;;;;47.05;45.38;;;;;;;;;;5112368;28;20047;-64
2023/12/30 04:35:41;;;;;;;44.35;42.55;;;;;;;;;;5112169;28;20039;-64
2023/12/30 04:38:07;;;;;;;45.38;43.45;;;;;;;;;;5111822;28;20055;-63
2023/12/30 04:40:35;;;;;;;36.53;34.97;;;;;;;;;;5110847;28;20770;-64
2023/12/30 04:43:02;;;;;;;46.30;44.38;;;;;;;;;;5094735;28;20043;-63
2023/12/30 04:45:28;;;;;;;45.45;43.00;;;;;;;;;;5074429;28;20498;-64
2023/12/30 04:47:55;;;;;;;35.88;34.40;;;;;;;;;;5071935;28;20097;-64
2023/12/30 04:50:23;;;;;;;39.35;37.45;;;;;;;;;;5071835;28;20049;-64
2023/12/30 04:52:49;;;;;;;48.40;46.35;;;;;;;;;;5071768;28;20097;-65
2023/12/30 04:55:15;;;;;;;45.65;43.70;;;;;;;;;;5071583;28;20052;-65
2023/12/30 04:57:47;;;;;;;45.20;43.03;;;;;;;;;;5084673;28;20106;-65
2023/12/30 05:00:15;;;;;;;48.97;46.58;;;;;;;;;;5089782;28;20514;-64
2023/12/30 05:02:42;;;;;;;48.60;46.72;;;;;;;;;;5087198;28;20052;-64
2023/12/30 05:05:09;;;;;;;52.70;50.13;;;;;;;;;;5082671;28;20052;-64
2023/12/30 05:07:35;;;;;;;44.95;43.25;;;;;;;;;;5071557;28;20080;-64
2023/12/30 05:10:02;;;;;;;49.17;46.88;;;;;;;;;;5071514;28;20057;-64
2023/12/30 05:12:28;;;;;;;48.85;46.92;;;;;;;;;;5073331;28;20044;-64
2023/12/30 05:14:56;;;;;;;47.25;45.28;;;;;;;;;;5075784;28;20052;-64
2023/12/30 05:17:22;;;;;;;47.20;45.53;;;;;;;;;;5096784;28;20048;-64
2023/12/30 05:19:49;;;;;;;47.20;45.45;;;;;;;;;;5095671;28;20098;-63
2023/12/30 05:22:15;;;;;;;26.88;25.77;;;;;;;;;;5092171;28;21324;-64
2023/12/30 05:24:42;;;;;;;52.50;50.38;;;;;;;;;;5082269;28;20052;-64
2023/12/30 05:27:08;;;;;;;46.75;44.85;;;;;;;;;;5075390;28;20490;-64
2023/12/30 05:29:35;;;;;;;47.85;45.50;;;;;;;;;;5075227;28;20064;-64
2023/12/30 05:32:04;;;;;;;43.47;41.78;;;;;;;;;;5088480;28;20108;-64
2023/12/30 05:34:30;;;;;;;49.70;47.75;;;;;;;;;;5094574;28;20035;-65
2023/12/30 05:36:57;;;;;;;48.42;46.72;;;;;;;;;;5079251;28;20124;-65
2023/12/30 05:39:23;;;;;;;48.33;46.28;;;;;;;;;;5094567;28;20047;-64
2023/12/30 05:41:49;;;;;;;38.35;36.80;;;;;;;;;;5094814;28;20109;-64
2023/12/30 05:44:16;;;;;;;49.97;48.15;;;;;;;;;;5094559;28;20086;-66
2023/12/30 05:46:42;;;;;;;33.00;31.42;;;;;;;;;;5094663;28;20452;-64
2023/12/30 05:49:10;;;;;;;53.03;50.85;;;;;;;;;;5095157;28;20056;-64
2023/12/30 05:51:41;;;;;;;43.75;41.85;;;;;;;;;;5097091;28;20040;-64
2023/12/30 05:54:09;;;;;;;51.28;49.28;;;;;;;;;;5080194;28;20102;-64
2023/12/30 05:56:35;;;;;;;47.00;45.08;;;;;;;;;;5087003;28;20060;-64
2023/12/30 05:59:02;;;;;;;25.58;24.25;;;;;;;;;;5114314;28;20482;-64
2023/12/30 06:01:28;;;;;;;44.08;42.15;;;;;;;;;;5103132;28;20051;-65
2023/12/30 06:03:55;;;;;;;48.47;46.33;;;;;;;;;;5114472;28;20051;-65
2023/12/30 06:06:22;;;;;;;50.15;47.70;;;;;;;;;;5103482;28;20716;-64
2023/12/30 06:08:49;;;;;;;64.53;61.55;;;;;;;;;;5093334;28;20098;-65
2023/12/30 06:11:15;;;;;;;28.85;27.45;;;;;;;;;;5088085;28;20524;-64
2023/12/30 06:13:42;;;;;;;48.80;46.85;;;;;;;;;;5087062;28;20052;-64
2023/12/30 06:16:10;;;;;;;30.88;29.52;;;;;;;;;;5074655;28;20476;-64
2023/12/30 06:18:36;;;;;;;44.83;42.58;;;;;;;;;;5074231;28;20056;-64
2023/12/30 06:21:04;;;;;;;49.03;46.97;;;;;;;;;;5080220;28;20101;-61
2023/12/30 06:23:32;;;;;;;53.08;50.75;;;;;;;;;;5114018;28;20058;-62
2023/12/30 06:26:00;;;;;;;44.33;42.60;;;;;;;;;;5114471;28;20112;-63
2023/12/30 06:28:27;;;;;;;49.28;47.08;;;;;;;;;;5097943;28;20454;-62
2023/12/30 06:30:53;;;;;;;54.22;51.50;;;;;;;;;;5092047;28;20097;-62
2023/12/30 06:33:21;;;;;;;53.55;51.38;;;;;;;;;;5086039;28;20504;-64
2023/12/30 06:35:47;;;;;;;52.72;50.50;;;;;;;;;;5097221;28;20098;-64
2023/12/30 06:38:15;;;;;;;49.88;47.67;;;;;;;;;;5095769;28;20044;-65
2023/12/30 06:40:45;;;;;;;45.33;43.58;;;;;;;;;;5093153;28;20052;-64
2023/12/30 06:43:11;;;;;;;52.33;49.95;;;;;;;;;;5093213;28;20048;-65
2023/12/30 06:45:38;;;;;;;47.80;46.00;;;;;;;;;;5093178;28;20048;-64
2023/12/30 06:48:05;;;;;;;49.53;47.63;;;;;;;;;;5092991;28;20044;-67
2023/12/30 06:50:31;;;;;;;53.40;51.08;;;;;;;;;;5089891;28;20048;-65
2023/12/30 06:52:58;;;;;;;62.08;59.58;;;;;;;;;;5089487;28;20059;-65
2023/12/30 06:55:25;;;;;;;39.33;37.75;;;;;;;;;;5087370;28;20462;-65
2023/12/30 06:57:53;;;;;;;32.03;30.50;;;;;;;;;;5082753;28;20404;-65
2023/12/30 07:00:20;;;;;;;56.63;53.92;;;;;;;;;;5094802;28;20059;-65
2023/12/30 07:02:46;;;;;;;55.38;52.97;;;;;;;;;;5093092;28;20168;-64
2023/12/30 07:05:13;;;;;;;56.83;54.28;;;;;;;;;;5090237;28;20060;-64
2023/12/30 07:07:39;;;;;;;53.25;50.92;;;;;;;;;;5113320;28;20056;-64
2023/12/30 07:10:06;;;;;;;49.30;47.10;;;;;;;;;;5073026;28;20049;-64
2023/12/30 07:12:33;;;;;;;64.03;61.35;;;;;;;;;;5092312;28;20114;-64
2023/12/30 07:15:01;;;;;;;45.08;43.35;;;;;;;;;;5089273;28;20135;-65
2023/12/30 07:17:27;;;;;;;48.38;46.15;;;;;;;;;;5078965;28;20045;-63
2023/12/30 07:19:54;;;;;;;63.30;60.45;;;;;;;;;;5092607;28;20089;-63
2023/12/30 07:22:20;;;;;;;53.13;51.20;;;;;;;;;;5092672;28;20100;-65
2023/12/30 07:24:47;;;;;;;50.55;48.45;;;;;;;;;;5088050;28;20055;-64
2023/12/30 07:27:14;;;;;;;53.35;51.17;;;;;;;;;;5085232;28;20052;-64
2023/12/30 07:29:40;;;;;;;50.17;48.30;;;;;;;;;;5091744;28;20122;-64
2023/12/30 07:32:08;;;;;;;45.05;43.20;;;;;;;;;;5084805;28;20056;-64
2023/12/30 07:34:35;;;;;;;52.78;50.47;;;;;;;;;;5088663;28;20048;-64
2023/12/30 07:37:02;;;;;;;55.63;52.63;;;;;;;;;;5087809;28;20052;-64
2023/12/30 07:39:28;;;;;;;56.47;54.03;;;;;;;;;;5079560;28;20066;-65
2023/12/30 07:41:55;;;;;;;51.92;49.80;;;;;;;;;;5083960;28;20062;-65
2023/12/30 07:44:21;;;;;;;56.13;53.83;;;;;;;;;;5089453;28;20097;-64
2023/12/30 07:46:48;;;;;;;50.63;47.80;;;;;;;;;;5089745;28;20071;-64
2023/12/30 07:49:17;;;;;;;48.67;46.42;;;;;;;;;;5086742;28;20043;-66
2023/12/30 07:51:43;;;;;;;56.10;53.13;;;;;;;;;;5087383;28;20079;-65
2023/12/30 07:54:10;;;;;;;60.67;58.10;;;;;;;;;;5091356;28;20109;-65
2023/12/30 07:56:36;;;;;;;36.88;34.70;;;;;;;;;;5089447;28;20403;-65
2023/12/30 07:59:02;;;;;;;47.72;45.70;;;;;;;;;;5092074;28;20097;-64
2023/12/30 08:01:29;;;;;;;61.17;58.50;;;;;;;;;;5090597;28;20047;-64
2023/12/30 08:03:55;;;;;;;62.47;60.00;;;;;;;;;;5086387;28;20074;-65
2023/12/30 08:06:23;;;;;;;50.92;48.78;;;;;;;;;;5078642;28;20089;-64
2023/12/30 08:08:50;;;;;;;47.83;45.65;;;;;;;;;;5089273;28;20056;-65
2023/12/30 08:11:16;;;;;;;46.88;44.72;;;;;;;;;;5090377;28;20105;-63
2023/12/30 08:13:43;;;;;;;55.42;52.88;;;;;;;;;;5083780;28;20133;-63
2023/12/30 08:16:09;;;;;;;58.22;55.85;;;;;;;;;;5079954;28;20048;-64
2023/12/30 08:18:36;;;;;;;55.95;53.63;;;;;;;;;;5091753;28;20074;-63
2023/12/30 08:21:02;;;;;;;46.80;44.83;;;;;;;;;;5091135;28;20525;-63
2023/12/30 08:23:30;;;;;;;52.53;49.97;;;;;;;;;;5084580;28;20044;-63
2023/12/30 08:25:56;;;;;;;47.30;45.33;;;;;;;;;;5084177;28;20040;-66
2023/12/30 08:28:23;;;;;;;45.97;43.65;;;;;;;;;;5091440;28;20039;-63
2023/12/30 08:30:51;;;;;;;51.28;48.65;;;;;;;;;;5091855;28;20533;-63
2023/12/30 08:33:17;;;;;;;56.22;53.75;;;;;;;;;;5081866;28;20048;-64
2023/12/30 08:35:44;;;;;;;64.60;61.75;;;;;;;;;;5086684;28;20056;-62
2023/12/30 08:38:10;;;;;;;53.50;51.17;;;;;;;;;;5088159;28;20052;-65
2023/12/30 08:40:38;;;;;;;39.78;37.63;;;;;;;;;;5077111;28;20436;-63
2023/12/30 08:43:04;;;;;;;59.00;56.72;;;;;;;;;;5080182;28;20105;-64
2023/12/30 08:45:31;;;;;;;59.13;56.70;;;;;;;;;;5091364;28;20502;-62
2023/12/30 08:47:58;;;;;;;59.22;56.42;;;;;;;;;;5098755;28;20057;-63
2023/12/30 08:50:24;;;;;;;35.03;33.58;;;;;;;;;;5091490;28;20459;-66
2023/12/30 08:52:51;;;;;;;63.92;61.03;;;;;;;;;;5082640;28;20112;-62
2023/12/30 08:55:17;;;;;;;64.57;62.22;;;;;;;;;;5084213;28;20110;-65
2023/12/30 08:57:45;;;;;;;57.88;55.25;;;;;;;;;;5071262;28;20064;-66
2023/12/30 09:00:12;;;;;;;63.13;59.67;;;;;;;;;;5090171;28;20501;-64
2023/12/30 09:02:46;;;;;;;58.53;56.28;;;;;;;;;;5090231;28;20105;-62
2023/12/30 09:05:12;;;;;;;59.08;56.58;;;;;;;;;;5091240;28;20123;-63
2023/12/30 09:07:39;;;;;;;63.70;61.05;;;;;;;;;;5073764;28;20049;-63
2023/12/30 09:10:06;;;;;;;63.13;60.05;;;;;;;;;;5088593;28;20056;-63
2023/12/30 09:12:32;;;;;;;60.67;58.05;;;;;;;;;;5083462;28;20501;-64
2023/12/30 09:15:00;;;;;;;54.60;51.55;;;;;;;;;;5080730;28;20056;-63
2023/12/30 09:17:27;;;;;;;61.45;58.92;;;;;;;;;;5083707;28;20060;-63
2023/12/30 09:19:54;;;;;;;58.50;56.13;;;;;;;;;;5088663;28;20048;-63
2023/12/30 09:22:20;;;;;;;60.05;57.47;;;;;;;;;;5080609;28;20052;-63
2023/12/30 09:24:47;;;;;;;65.85;63.25;;;;;;;;;;5091146;28;20079;-64
2023/12/30 09:27:13;;;;;;;67.90;65.03;;;;;;;;;;5091362;28;20044;-63
2023/12/30 09:29:40;;;;;;;76.00;72.38;;;;;;;;;;5080943;28;20102;-63
2023/12/30 09:32:08;;;;;;;63.72;60.35;;;;;;;;;;5087079;28;20109;-63
2023/12/30 09:34:34;;;;;;;53.28;50.67;;;;;;;;;;5090137;28;20498;-64
2023/12/30 09:37:01;;;;;;;61.85;59.08;;;;;;;;;;5092902;28;20125;-63
2023/12/30 09:39:28;;;;;;;62.58;59.55;;;;;;;;;;5087618;28;20109;-63
2023/12/30 09:41:54;;;;;;;63.50;59.53;;;;;;;;;;5077819;28;20113;-63
2023/12/30 09:44:22;;;;;;;68.53;65.10;;;;;;;;;;5074403;28;20040;-63
2023/12/30 09:46:50;;;;;;;59.05;55.65;;;;;;;;;;5084621;28;20147;-62
2023/12/30 09:49:18;;;;;;;61.67;57.95;;;;;;;;;;5095480;28;20051;-65
2023/12/30 09:51:45;;;;;;;68.60;65.00;;;;;;;;;;5086160;28;20110;-64
2023/12/30 09:54:11;;;;;;;70.78;67.35;;;;;;;;;;5089520;28;20486;-63
2023/12/30 09:56:40;;;;;;;64.47;62.22;;;;;;;;;;5079053;28;20051;-63
2023/12/30 09:59:07;;;;;;;70.18;66.80;;;;;;;;;;5091954;28;20101;-63
2023/12/30 10:01:34;;;;;;;72.03;68.65;;;;;;;;;;5094528;28;20097;-63
2023/12/30 10:04:03;;;;;;;66.57;63.30;;;;;;;;;;5082012;28;20102;-64
2023/12/30 10:06:34;;;;;;;64.82;62.10;;;;;;;;;;5094208;28;20117;-63
2023/12/30 10:09:01;;;;;;;75.95;72.70;;;;;;;;;;5085694;28;20036;-64
2023/12/30 10:11:27;;;;;;;72.65;69.60;;;;;;;;;;5085604;28;20044;-63
2023/12/30 10:13:54;;;;;;;70.43;67.72;;;;;;;;;;5092449;28;20089;-65
2023/12/30 10:16:21;;;;;;;77.20;74.40;;;;;;;;;;5087460;28;20044;-64
2023/12/30 10:18:47;;;;;;;73.25;69.57;;;;;;;;;;5094124;28;20073;-64
2023/12/30 10:21:17;;;;;;;88.28;84.20;;;;;;;;;;5089574;28;20051;-63
2023/12/30 10:23:48;;;;;;;89.78;85.38;;;;;;;;;;5087651;28;20043;-63
2023/12/30 10:26:14;;;;;;;80.00;76.90;;;;;;;;;;5097602;28;20043;-64
2023/12/30 10:28:40;;;;;;;91.22;87.32;;;;;;;;;;5096265;28;20098;-64
2023/12/30 10:31:07;;;;;;;78.28;73.95;;;;;;;;;;5091338;28;20044;-64
2023/12/30 10:33:35;;;;;;;83.38;78.32;;;;;;;;;;5093789;28;20109;-63
2023/12/30 10:36:05;;;;;;;62.05;57.85;;;;;;;;;;5093683;28;20582;-62
2023/12/30 10:38:32;;;;;;;82.72;77.93;;;;;;;;;;5087052;28;20104;-64
2023/12/30 10:41:00;;;;;;;95.95;90.50;;;;;;;;;;5092610;28;20048;-64
2023/12/30 10:43:27;;;;;;;91.32;86.32;;;;;;;;;;5106174;28;20051;-63
2023/12/30 10:45:57;;;;;;;94.10;87.53;;;;;;;;;;5114423;28;20051;-64
2023/12/30 10:48:24;;;;;;;95.53;90.10;;;;;;;;;;5102376;28;20098;-63
2023/12/30 10:50:53;;;;;;;102.50;96.80;;;;;;;;;;5094245;28;20055;-64
2023/12/30 10:53:25;;;;;;;113.53;105.57;;;;;;;;;;5093482;28;20457;-65
2023/12/30 10:55:52;;;;;;;85.55;80.43;;;;;;;;;;5080631;28;20151;-64
2023/12/30 10:58:22;;;;;;;94.50;89.50;;;;;;;;;;5091829;28;20555;-64
2023/12/30 11:00:50;;;;;;;108.25;101.88;;;;;;;;;;5097677;28;20135;-63
2023/12/30 11:03:17;;;;;;;97.85;93.00;;;;;;;;;;5114086;28;20047;-64
2023/12/30 11:05:48;;;;;;;79.00;73.95;;;;;;;;;;5113759;28;20483;-64
2023/12/30 11:08:17;;;;;;;109.88;105.00;;;;;;;;;;5093337;28;20101;-63
2023/12/30 11:10:44;;;;;;;96.50;91.15;;;;;;;;;;5091215;28;20048;-64
2023/12/30 11:13:10;;;;;;;105.95;99.47;;;;;;;;;;5094092;28;20055;-64
2023/12/30 11:15:39;;;;;;;110.95;105.32;;;;;;;;;;5093393;28;20055;-65
2023/12/30 11:18:06;;;;;;;101.35;95.82;;;;;;;;;;5104413;28;20040;-62
2023/12/30 11:20:33;;;;;;;66.65;62.85;;;;;;;;;;5093925;28;20484;-63
2023/12/30 11:23:00;;;;;;;108.35;103.43;;;;;;;;;;5093295;28;20055;-63
2023/12/30 11:25:34;;;;;;;106.90;102.15;;;;;;;;;;5093235;28;20059;-63
2023/12/30 11:28:12;;;;;;;114.43;109.80;;;;;;;;;;5101812;28;20047;-63
2023/12/30 11:30:40;;;;;;;99.15;94.38;;;;;;;;;;5098047;28;20553;-64
2023/12/30 11:33:07;;;;;;;101.65;97.28;;;;;;;;;;5088984;28;20134;-63
2023/12/30 11:35:33;;;;;;;93.32;88.82;;;;;;;;;;5104568;28;20084;-63
2023/12/30 11:38:01;;;;;;;99.18;94.57;;;;;;;;;;5095069;28;20055;-64
2023/12/30 11:40:29;;;;;;;106.18;102.00;;;;;;;;;;5096540;28;20048;-63
2023/12/30 11:42:56;;;;;;;100.78;96.78;;;;;;;;;;5100594;28;20754;-63
2023/12/30 11:45:22;;;;;;;96.97;93.10;;;;;;;;;;5092781;28;20039;-63
2023/12/30 11:47:50;;;;;;;116.72;112.20;;;;;;;;;;5102090;28;20048;-65
2023/12/30 11:50:18;;;;;;;105.88;101.50;;;;;;;;;;5080728;28;20872;-64
2023/12/30 11:52:46;;;;;;;108.75;104.07;;;;;;;;;;5089588;28;20056;-65
2023/12/30 11:55:12;;;;;;;108.57;103.65;;;;;;;;;;5100710;28;20056;-63
2023/12/30 11:57:39;;;;;;;122.85;117.25;;;;;;;;;;5102379;28;20056;-63
2023/12/30 12:00:08;;;;;;;115.85;109.43;;;;;;;;;;5093285;28;20052;-64
2023/12/30 12:02:34;;;;;;;123.30;117.70;;;;;;;;;;5100991;28;20047;-63
2023/12/30 12:05:02;;;;;;;107.03;101.22;;;;;;;;;;5089302;28;20113;-64
2023/12/30 12:07:28;;;;;;;107.30;102.47;;;;;;;;;;5090620;28;20090;-63
2023/12/30 12:09:56;;;;;;;119.07;112.80;;;;;;;;;;5087456;28;20044;-64
2023/12/30 12:12:22;;;;;;;104.60;99.88;;;;;;;;;;5093678;28;20105;-64
2023/12/30 12:14:49;;;;;;;111.90;107.50;;;;;;;;;;5094947;28;20094;-64
2023/12/30 12:17:16;;;;;;;118.60;112.70;;;;;;;;;;5098763;28;20075;-67
2023/12/30 12:19:42;;;;;;;103.43;98.40;;;;;;;;;;5088802;28;20040;-64
2023/12/30 12:22:12;;;;;;;119.28;114.05;;;;;;;;;;5087689;28;20109;-64
2023/12/30 12:24:39;;;;;;;119.80;114.38;;;;;;;;;;5087762;28;20044;-64
2023/12/30 12:27:06;;;;;;;123.88;118.32;;;;;;;;;;5086582;28;20040;-65
2023/12/30 12:29:32;;;;;;;101.45;97.15;;;;;;;;;;5087059;28;20501;-64
2023/12/30 12:31:59;;;;;;;121.78;116.88;;;;;;;;;;5083908;28;20497;-64
2023/12/30 12:34:26;;;;;;;110.50;105.88;;;;;;;;;;5091044;28;20083;-65
2023/12/30 12:36:52;;;;;;;124.50;119.05;;;;;;;;;;5085566;28;20168;-63
2023/12/30 12:39:20;;;;;;;108.47;103.60;;;;;;;;;;5082673;28;20044;-63
2023/12/30 12:41:47;;;;;;;122.00;117.05;;;;;;;;;;5089963;28;20044;-62
2023/12/30 12:44:13;;;;;;;121.90;116.20;;;;;;;;;;5090745;28;20051;-62
2023/12/30 12:46:39;;;;;;;125.68;120.28;;;;;;;;;;5086107;28;20071;-65
2023/12/30 12:49:06;;;;;;;116.72;111.78;;;;;;;;;;5076979;28;20060;-63
2023/12/30 12:51:36;;;;;;;129.80;124.38;;;;;;;;;;5087809;28;20048;-63
2023/12/30 12:54:03;;;;;;;135.80;129.85;;;;;;;;;;5077687;28;20094;-62
2023/12/30 12:56:32;;;;;;;128.75;122.82;;;;;;;;;;5089683;28;20052;-64
2023/12/30 12:58:58;;;;;;;121.82;116.53;;;;;;;;;;5089501;28;20051;-63
2023/12/30 13:01:24;;;;;;;113.07;108.30;;;;;;;;;;5090638;28;20567;-64
2023/12/30 13:03:51;;;;;;;117.88;113.07;;;;;;;;;;5090792;28;20066;-63
2023/12/30 13:06:17;;;;;;;129.82;124.15;;;;;;;;;;5088785;28;20498;-64
2023/12/30 13:08:45;;;;;;;139.00;133.35;;;;;;;;;;5090246;28;20113;-64
2023/12/30 13:11:13;;;;;;;141.65;135.38;;;;;;;;;;5092967;28;20570;-64
2023/12/30 13:13:41;;;;;;;156.60;149.93;;;;;;;;;;5086931;28;20049;-63
2023/12/30 13:16:08;;;;;;;156.82;150.27;;;;;;;;;;5097606;28;20135;-63
2023/12/30 13:18:34;;;;;;;151.90;145.88;;;;;;;;;;5093043;28;20133;-63
2023/12/30 13:21:05;;;;;;;105.97;100.65;;;;;;;;;;5089506;28;20459;-64
2023/12/30 13:23:32;;;;;;;152.98;146.25;;;;;;;;;;5090647;28;20040;-63
2023/12/30 13:25:58;;;;;;;158.88;152.20;;;;;;;;;;5076001;28;20043;-64
2023/12/30 13:28:26;;;;;;;158.65;152.02;;;;;;;;;;5088378;28;20105;-63
2023/12/30 13:30:54;;;;;;;166.02;159.70;;;;;;;;;;5088725;28;20044;-63
2023/12/30 13:33:21;;;;;;;163.20;156.25;;;;;;;;;;5087510;28;20086;-63
2023/12/30 13:35:48;;;;;;;159.18;152.30;;;;;;;;;;5086272;28;20048;-62
2023/12/30 13:38:15;;;;;;;151.18;144.88;;;;;;;;;;5094411;28;20136;-63
2023/12/30 13:40:42;;;;;;;165.98;159.07;;;;;;;;;;5094279;28;20051;-64
2023/12/30 13:43:09;;;;;;;167.57;160.85;;;;;;;;;;5091721;28;20101;-62
2023/12/30 13:45:37;;;;;;;164.50;158.13;;;;;;;;;;5094168;28;20040;-63
2023/12/30 13:49:10;;;;;;;175.43;169.25;;;;;;;;;;5093661;28;20123;-62
2023/12/30 13:51:11;;;;;;;161.55;155.32;;;;;;;;;;5094123;28;20046;-62
2023/12/30 13:53:38;;;;;;;165.73;159.65;;;;;;;;;;5087041;28;20040;-62
2023/12/30 13:56:06;;;;;;;162.13;156.48;;;;;;;;;;5089785;28;20513;-63
2023/12/30 13:58:33;;;;;;;160.88;155.13;;;;;;;;;;5076024;28;20049;-62
2023/12/30 14:01:00;;;;;;;161.60;155.60;;;;;;;;;;5074336;28;20060;-62
2023/12/30 14:03:28;;;;;;;162.73;156.82;;;;;;;;;;5074090;28;20075;-62
2023/12/30 14:05:54;;;;;;;167.25;161.60;;;;;;;;;;5074193;28;20057;-63
2023/12/30 14:08:32;;;;;;;127.68;122.63;;;;;;;;;;5074100;28;20441;-63
2023/12/30 14:11:07;;;;;;;169.18;163.02;;;;;;;;;;5074156;28;20080;-62